TimeCDT,TemperatureF,Dew PointF,Humidity,Sea Level PressureIn,VisibilityMPH,Wind Direction,Wind SpeedMPH,Gust SpeedMPH,PrecipitationIn,Events,Conditions,WindDirDegrees,DateUTC
12:15 AM,33.8,32.0,93,29.64,5.0,SSE,9.2,-,N/A,Rain,Light Rain,150,2013-10-20 05:15:00
12:35 AM,32.0,32.0,100,29.63,7.0,SSE,8.1,-,N/A,Rain,Light Rain,150,2013-10-20 05:35:00
12:55 AM,33.8,32.0,93,29.62,9.0,SE,10.4,-,N/A,,Overcast,140,2013-10-20 05:55:00
1:15 AM,33.8,32.0,93,29.61,7.0,SE,10.4,-,N/A,Rain,Light Rain,140,2013-10-20 06:15:00
1:35 AM,35.6,33.8,93,29.61,7.0,SE,8.1,-,N/A,,Overcast,130,2013-10-20 06:35:00
1:55 AM,33.8,32.0,93,29.60,5.0,East,9.2,-,N/A,,Overcast,100,2013-10-20 06:55:00
2:15 AM,33.8,32.0,93,29.61,5.0,ESE,8.1,-,N/A,,Overcast,110,2013-10-20 07:15:00
2:35 AM,33.8,32.0,93,29.61,4.0,East,9.2,-,N/A,,Overcast,100,2013-10-20 07:35:00
2:55 AM,33.8,32.0,93,29.61,6.0,East,9.2,-,N/A,,Overcast,100,2013-10-20 07:55:00
3:15 AM,33.8,32.0,93,29.61,8.0,East,10.4,-,N/A,,Overcast,90,2013-10-20 08:15:00
3:35 AM,32.0,32.0,100,29.61,4.0,East,10.4,-,N/A,Rain,Light Rain,80,2013-10-20 08:35:00
3:55 AM,32.0,32.0,100,29.62,5.0,ENE,6.9,-,N/A,Snow,Light Snow,60,2013-10-20 08:55:00
4:15 AM,32.0,32.0,100,29.62,3.0,ENE,8.1,-,0.02,Snow,Light Snow,70,2013-10-20 09:15:00
4:35 AM,32.0,32.0,100,29.62,3.0,ENE,8.1,-,0.07,Snow,Light Snow,60,2013-10-20 09:35:00
4:55 AM,32.0,32.0,100,29.63,3.0,NE,8.1,-,0.14,Snow,Light Snow,50,2013-10-20 09:55:00
5:15 AM,32.0,32.0,100,29.64,2.0,NE,10.4,-,0.05,Snow,Light Snow,40,2013-10-20 10:15:00
5:35 AM,32.0,32.0,100,29.65,3.0,NE,11.5,-,0.12,Snow,Light Snow,40,2013-10-20 10:35:00
5:55 AM,32.0,32.0,100,29.66,2.5,NNE,13.8,-,0.20,Snow,Light Snow,30,2013-10-20 10:55:00
6:15 AM,32.0,32.0,100,29.67,1.5,NNE,12.7,-,0.11,Snow,Light Snow,30,2013-10-20 11:15:00
6:35 AM,32.0,32.0,100,29.69,3.0,NNE,16.1,-,0.14,Snow,Light Snow,30,2013-10-20 11:35:00
6:55 AM,32.0,32.0,100,29.70,2.0,NNE,16.1,19.6,0.18,Snow,Light Snow,30,2013-10-20 11:55:00
7:15 AM,32.0,32.0,100,29.71,3.0,NNE,17.3,-,0.01,Snow,Light Snow,20,2013-10-20 12:15:00
7:35 AM,32.0,32.0,100,29.72,7.0,NNE,16.1,23.0,0.01,Rain,Light Rain,30,2013-10-20 12:35:00
7:55 AM,32.0,32.0,100,29.73,10.0,NNE,16.1,21.9,0.01,,Overcast,20,2013-10-20 12:55:00
8:15 AM,32.0,32.0,100,29.75,5.0,NNE,16.1,20.7,N/A,Rain,Light Rain,20,2013-10-20 13:15:00
8:35 AM,32.0,32.0,100,29.76,7.0,North,13.8,21.9,N/A,Snow,Light Snow,10,2013-10-20 13:35:00
8:55 AM,32.0,32.0,100,29.77,10.0,North,17.3,23.0,N/A,,Overcast,10,2013-10-20 13:55:00
9:15 AM,32.0,32.0,100,29.78,10.0,NNE,17.3,-,N/A,,Overcast,20,2013-10-20 14:15:00
9:35 AM,32.0,32.0,100,29.80,8.0,North,17.3,23.0,N/A,,Overcast,10,2013-10-20 14:35:00
9:55 AM,32.0,32.0,100,29.81,10.0,NNE,15.0,25.3,N/A,,Overcast,20,2013-10-20 14:55:00
10:15 AM,32.0,32.0,100,29.82,10.0,North,18.4,28.8,N/A,,Mostly Cloudy,360,2013-10-20 15:15:00
10:35 AM,32.0,30.2,93,29.83,10.0,North,21.9,26.5,N/A,,Overcast,10,2013-10-20 15:35:00
10:55 AM,32.0,28.4,87,29.84,10.0,North,19.6,29.9,N/A,,Overcast,10,2013-10-20 15:55:00
11:15 AM,32.0,28.4,87,29.86,10.0,North,18.4,25.3,N/A,,Overcast,360,2013-10-20 16:15:00
11:35 AM,32.0,26.6,80,29.87,10.0,North,21.9,27.6,N/A,,Mostly Cloudy,360,2013-10-20 16:35:00
11:55 AM,32.0,28.4,87,29.87,10.0,North,20.7,25.3,N/A,,Mostly Cloudy,350,2013-10-20 16:55:00
12:15 PM,32.0,28.4,87,29.88,10.0,North,21.9,28.8,N/A,,Overcast,360,2013-10-20 17:15:00
12:35 PM,32.0,28.4,87,29.89,10.0,North,17.3,23.0,N/A,,Mostly Cloudy,350,2013-10-20 17:35:00
12:55 PM,32.0,26.6,80,29.89,10.0,North,17.3,27.6,N/A,,Overcast,350,2013-10-20 17:55:00
1:15 PM,33.8,26.6,75,29.89,10.0,NNW,20.7,27.6,N/A,,Mostly Cloudy,340,2013-10-20 18:15:00
1:35 PM,33.8,26.6,75,29.90,10.0,North,17.3,24.2,N/A,,Mostly Cloudy,360,2013-10-20 18:35:00
1:55 PM,33.8,24.8,70,29.90,10.0,NNW,17.3,23.0,N/A,,Scattered Clouds,340,2013-10-20 18:55:00
2:15 PM,33.8,23.0,65,29.91,10.0,North,21.9,26.5,N/A,,Scattered Clouds,350,2013-10-20 19:15:00
2:35 PM,35.6,24.8,65,29.91,10.0,North,18.4,24.2,N/A,,Mostly Cloudy,350,2013-10-20 19:35:00
2:55 PM,33.8,24.8,70,29.91,10.0,NNW,18.4,27.6,N/A,,Mostly Cloudy,330,2013-10-20 19:55:00
3:15 PM,33.8,23.0,65,29.91,10.0,NNW,17.3,23.0,N/A,,Mostly Cloudy,340,2013-10-20 20:15:00
3:35 PM,33.8,23.0,65,29.92,10.0,NNW,19.6,25.3,N/A,,Mostly Cloudy,330,2013-10-20 20:35:00
3:55 PM,33.8,23.0,65,29.92,10.0,NNW,18.4,24.2,N/A,,Mostly Cloudy,340,2013-10-20 20:55:00
4:15 PM,32.0,21.2,64,29.93,10.0,NW,18.4,24.2,N/A,,Scattered Clouds,320,2013-10-20 21:15:00
4:35 PM,32.0,21.2,64,29.93,10.0,North,21.9,28.8,N/A,,Mostly Cloudy,350,2013-10-20 21:35:00
4:55 PM,32.0,19.4,60,29.94,10.0,NNW,20.7,26.5,N/A,,Overcast,340,2013-10-20 21:55:00
5:15 PM,32.0,19.4,60,29.94,10.0,NNW,19.6,25.3,N/A,,Overcast,340,2013-10-20 22:15:00
5:35 PM,32.0,21.2,64,29.94,10.0,NNW,15.0,20.7,N/A,,Overcast,340,2013-10-20 22:35:00
5:55 PM,32.0,23.0,69,29.95,10.0,North,20.7,25.3,N/A,,Overcast,350,2013-10-20 22:55:00
6:15 PM,32.0,23.0,69,29.96,10.0,NNW,20.7,25.3,N/A,,Overcast,340,2013-10-20 23:15:00
6:35 PM,32.0,19.4,60,29.97,10.0,North,19.6,27.6,N/A,,Overcast,350,2013-10-20 23:35:00
6:55 PM,30.2,19.4,64,29.97,10.0,NNW,21.9,27.6,N/A,,Overcast,340,2013-10-20 23:55:00
7:15 PM,32.0,19.4,60,29.97,10.0,NW,21.9,28.8,N/A,,Overcast,320,2013-10-21 00:15:00
7:35 PM,32.0,21.2,64,29.97,10.0,NNW,16.1,21.9,N/A,,Overcast,340,2013-10-21 00:35:00
7:55 PM,32.0,21.2,64,29.97,10.0,NNW,17.3,-,N/A,,Overcast,340,2013-10-21 00:55:00
8:15 PM,30.2,23.0,75,29.97,10.0,NNW,15.0,19.6,N/A,,Overcast,330,2013-10-21 01:15:00
8:35 PM,30.2,19.4,64,29.97,10.0,NNW,17.3,27.6,N/A,,Overcast,330,2013-10-21 01:35:00
8:55 PM,30.2,21.2,69,29.97,10.0,NNW,16.1,21.9,N/A,,Overcast,330,2013-10-21 01:55:00
9:15 PM,30.2,21.2,69,29.98,10.0,NNW,11.5,-,N/A,,Overcast,330,2013-10-21 02:15:00
9:35 PM,30.2,21.2,69,29.98,10.0,NNW,11.5,-,N/A,,Overcast,330,2013-10-21 02:35:00
9:55 PM,30.2,19.4,64,29.98,10.0,NNW,16.1,21.9,N/A,,Overcast,340,2013-10-21 02:55:00
10:15 PM,30.2,19.4,64,29.98,10.0,NNW,15.0,-,N/A,,Overcast,340,2013-10-21 03:15:00
10:35 PM,30.2,17.6,60,29.98,10.0,North,13.8,23.0,N/A,,Overcast,350,2013-10-21 03:35:00
10:55 PM,30.2,17.6,60,29.98,10.0,NNW,16.1,23.0,N/A,,Overcast,340,2013-10-21 03:55:00
11:15 PM,30.2,17.6,60,29.98,10.0,North,17.3,23.0,N/A,,Overcast,350,2013-10-21 04:15:00
11:35 PM,28.4,17.6,64,29.98,10.0,NNW,17.3,24.2,N/A,,Overcast,340,2013-10-21 04:35:00
11:55 PM,28.4,15.8,59,29.98,10.0,North,13.8,26.5,N/A,,Overcast,350,2013-10-21 04:55:00